sensor_id;sensor_type;location;lat;lon;timestamp;P1;durP1;ratioP1;P2;durP2;ratioP2
24449;SDS011;13349;50.984;5.822;2022-12-16T00:01:33;36.42;;;15.75;;
24449;SDS011;13349;50.984;5.822;2022-12-16T00:04:00;42.67;;;17.35;;
24449;SDS011;13349;50.984;5.822;2022-12-16T00:06:28;35.90;;;17.23;;
24449;SDS011;13349;50.984;5.822;2022-12-16T00:08:57;41.53;;;16.60;;
24449;SDS011;13349;50.984;5.822;2022-12-16T00:11:26;39.22;;;17.48;;
24449;SDS011;13349;50.984;5.822;2022-12-16T00:13:56;30.93;;;15.00;;
24449;SDS011;13349;50.984;5.822;2022-12-16T00:16:23;30.50;;;15.82;;
24449;SDS011;13349;50.984;5.822;2022-12-16T00:18:51;38.67;;;17.10;;
24449;SDS011;13349;50.984;5.822;2022-12-16T00:21:19;32.80;;;15.93;;
24449;SDS011;13349;50.984;5.822;2022-12-16T00:23:52;38.83;;;17.90;;
24449;SDS011;13349;50.984;5.822;2022-12-16T00:26:20;34.97;;;15.77;;
24449;SDS011;13349;50.984;5.822;2022-12-16T00:28:49;30.30;;;16.35;;
24449;SDS011;13349;50.984;5.822;2022-12-16T00:31:16;40.92;;;18.15;;
24449;SDS011;13349;50.984;5.822;2022-12-16T00:33:43;35.28;;;17.65;;
24449;SDS011;13349;50.984;5.822;2022-12-16T00:36:10;31.55;;;16.77;;
24449;SDS011;13349;50.984;5.822;2022-12-16T00:38:37;36.15;;;17.05;;
24449;SDS011;13349;50.984;5.822;2022-12-16T00:41:05;39.22;;;17.25;;
24449;SDS011;13349;50.984;5.822;2022-12-16T00:43:32;33.72;;;16.65;;
24449;SDS011;13349;50.984;5.822;2022-12-16T00:46:01;33.47;;;16.38;;
24449;SDS011;13349;50.984;5.822;2022-12-16T00:48:28;34.40;;;16.63;;
24449;SDS011;13349;50.984;5.822;2022-12-16T00:50:55;31.48;;;15.00;;
24449;SDS011;13349;50.984;5.822;2022-12-16T00:53:23;28.50;;;15.05;;
24449;SDS011;13349;50.984;5.822;2022-12-16T00:55:50;42.53;;;19.83;;
24449;SDS011;13349;50.984;5.822;2022-12-16T00:58:18;45.92;;;20.52;;
24449;SDS011;13349;50.984;5.822;2022-12-16T01:00:45;47.15;;;22.58;;
24449;SDS011;13349;50.984;5.822;2022-12-16T01:03:13;36.38;;;19.67;;
24449;SDS011;13349;50.984;5.822;2022-12-16T01:05:40;42.88;;;22.08;;
24449;SDS011;13349;50.984;5.822;2022-12-16T01:08:07;48.17;;;22.50;;
24449;SDS011;13349;50.984;5.822;2022-12-16T01:10:35;41.53;;;20.40;;
24449;SDS011;13349;50.984;5.822;2022-12-16T01:13:02;36.53;;;18.88;;
24449;SDS011;13349;50.984;5.822;2022-12-16T01:15:29;38.83;;;20.00;;
24449;SDS011;13349;50.984;5.822;2022-12-16T01:17:56;35.70;;;15.77;;
24449;SDS011;13349;50.984;5.822;2022-12-16T01:20:25;30.85;;;16.85;;
24449;SDS011;13349;50.984;5.822;2022-12-16T01:22:52;33.28;;;16.63;;
24449;SDS011;13349;50.984;5.822;2022-12-16T01:25:19;34.40;;;15.95;;
24449;SDS011;13349;50.984;5.822;2022-12-16T01:27:46;38.75;;;15.20;;
24449;SDS011;13349;50.984;5.822;2022-12-16T01:30:14;37.50;;;17.77;;
24449;SDS011;13349;50.984;5.822;2022-12-16T01:32:42;26.20;;;14.60;;
24449;SDS011;13349;50.984;5.822;2022-12-16T01:35:10;32.83;;;17.90;;
24449;SDS011;13349;50.984;5.822;2022-12-16T01:37:39;44.35;;;16.60;;
24449;SDS011;13349;50.984;5.822;2022-12-16T01:40:07;29.60;;;14.98;;
24449;SDS011;13349;50.984;5.822;2022-12-16T01:42:42;29.55;;;15.02;;
24449;SDS011;13349;50.984;5.822;2022-12-16T01:45:21;29.98;;;15.95;;
24449;SDS011;13349;50.984;5.822;2022-12-16T01:47:58;31.83;;;15.77;;
24449;SDS011;13349;50.984;5.822;2022-12-16T01:50:28;28.23;;;15.55;;
24449;SDS011;13349;50.984;5.822;2022-12-16T01:52:58;35.90;;;16.30;;
24449;SDS011;13349;50.984;5.822;2022-12-16T01:55:29;33.13;;;18.10;;
24449;SDS011;13349;50.984;5.822;2022-12-16T01:58:01;34.90;;;16.77;;
24449;SDS011;13349;50.984;5.822;2022-12-16T02:00:34;33.42;;;16.35;;
24449;SDS011;13349;50.984;5.822;2022-12-16T02:03:03;29.67;;;16.17;;
24449;SDS011;13349;50.984;5.822;2022-12-16T02:05:32;34.90;;;16.85;;
24449;SDS011;13349;50.984;5.822;2022-12-16T02:08:10;29.23;;;15.68;;
24449;SDS011;13349;50.984;5.822;2022-12-16T02:10:41;29.42;;;14.77;;
24449;SDS011;13349;50.984;5.822;2022-12-16T02:13:20;29.20;;;14.77;;
24449;SDS011;13349;50.984;5.822;2022-12-16T02:15:53;27.40;;;14.43;;
24449;SDS011;13349;50.984;5.822;2022-12-16T02:18:30;31.05;;;15.90;;
24449;SDS011;13349;50.984;5.822;2022-12-16T02:30:24;33.15;;;16.83;;
24449;SDS011;13349;50.984;5.822;2022-12-16T02:33:02;33.25;;;16.52;;
24449;SDS011;13349;50.984;5.822;2022-12-16T02:35:38;31.33;;;17.17;;
24449;SDS011;13349;50.984;5.822;2022-12-16T02:38:12;35.30;;;16.42;;
24449;SDS011;13349;50.984;5.822;2022-12-16T02:40:48;27.10;;;15.68;;
24449;SDS011;13349;50.984;5.822;2022-12-16T02:45:54;37.42;;;16.10;;
24449;SDS011;13349;50.984;5.822;2022-12-16T02:48:21;29.00;;;15.00;;
24449;SDS011;13349;50.984;5.822;2022-12-16T02:50:49;30.17;;;14.07;;
24449;SDS011;13349;50.984;5.822;2022-12-16T02:53:18;25.58;;;14.70;;
24449;SDS011;13349;50.984;5.822;2022-12-16T02:55:49;32.63;;;15.45;;
24449;SDS011;13349;50.984;5.822;2022-12-16T02:58:21;29.25;;;15.10;;
24449;SDS011;13349;50.984;5.822;2022-12-16T03:00:59;27.20;;;13.55;;
24449;SDS011;13349;50.984;5.822;2022-12-16T03:03:35;28.00;;;14.50;;
24449;SDS011;13349;50.984;5.822;2022-12-16T03:08:36;25.65;;;14.38;;
24449;SDS011;13349;50.984;5.822;2022-12-16T03:11:07;24.42;;;13.80;;
24449;SDS011;13349;50.984;5.822;2022-12-16T03:13:35;36.22;;;17.25;;
24449;SDS011;13349;50.984;5.822;2022-12-16T03:16:06;27.27;;;15.15;;
24449;SDS011;13349;50.984;5.822;2022-12-16T03:18:36;26.85;;;14.65;;
24449;SDS011;13349;50.984;5.822;2022-12-16T03:21:07;31.77;;;14.73;;
24449;SDS011;13349;50.984;5.822;2022-12-16T03:23:37;33.30;;;15.80;;
24449;SDS011;13349;50.984;5.822;2022-12-16T03:26:09;40.63;;;15.88;;
24449;SDS011;13349;50.984;5.822;2022-12-16T03:28:42;27.25;;;14.82;;
24449;SDS011;13349;50.984;5.822;2022-12-16T03:31:16;29.45;;;13.45;;
24449;SDS011;13349;50.984;5.822;2022-12-16T03:33:50;27.45;;;14.63;;
24449;SDS011;13349;50.984;5.822;2022-12-16T03:36:21;35.80;;;14.82;;
24449;SDS011;13349;50.984;5.822;2022-12-16T03:38:51;32.08;;;15.40;;
24449;SDS011;13349;50.984;5.822;2022-12-16T03:41:20;29.48;;;15.60;;
24449;SDS011;13349;50.984;5.822;2022-12-16T03:43:49;27.65;;;13.75;;
24449;SDS011;13349;50.984;5.822;2022-12-16T03:46:19;27.45;;;13.98;;
24449;SDS011;13349;50.984;5.822;2022-12-16T03:48:47;30.23;;;15.10;;
24449;SDS011;13349;50.984;5.822;2022-12-16T03:51:15;34.10;;;16.73;;
24449;SDS011;13349;50.984;5.822;2022-12-16T03:53:43;28.02;;;15.18;;
24449;SDS011;13349;50.984;5.822;2022-12-16T03:56:11;37.17;;;17.55;;
24449;SDS011;13349;50.984;5.822;2022-12-16T03:58:38;32.38;;;15.55;;
24449;SDS011;13349;50.984;5.822;2022-12-16T04:01:06;25.88;;;13.95;;
24449;SDS011;13349;50.984;5.822;2022-12-16T04:03:36;28.60;;;14.18;;
24449;SDS011;13349;50.984;5.822;2022-12-16T04:06:03;23.15;;;13.15;;
24449;SDS011;13349;50.984;5.822;2022-12-16T04:08:31;31.88;;;15.57;;
24449;SDS011;13349;50.984;5.822;2022-12-16T04:10:58;28.08;;;14.40;;
24449;SDS011;13349;50.984;5.822;2022-12-16T04:13:43;30.90;;;14.57;;
24449;SDS011;13349;50.984;5.822;2022-12-16T04:16:27;25.92;;;13.70;;
24449;SDS011;13349;50.984;5.822;2022-12-16T04:19:17;36.88;;;16.58;;
24449;SDS011;13349;50.984;5.822;2022-12-16T04:22:04;37.38;;;16.20;;
24449;SDS011;13349;50.984;5.822;2022-12-16T04:24:55;29.90;;;14.93;;
24449;SDS011;13349;50.984;5.822;2022-12-16T04:27:25;29.08;;;16.15;;
24449;SDS011;13349;50.984;5.822;2022-12-16T04:29:53;33.90;;;16.15;;
24449;SDS011;13349;50.984;5.822;2022-12-16T04:32:37;31.58;;;15.63;;
24449;SDS011;13349;50.984;5.822;2022-12-16T04:35:23;34.38;;;16.00;;
24449;SDS011;13349;50.984;5.822;2022-12-16T04:38:08;35.45;;;16.35;;
24449;SDS011;13349;50.984;5.822;2022-12-16T04:40:52;31.35;;;15.52;;
24449;SDS011;13349;50.984;5.822;2022-12-16T04:43:37;30.75;;;15.88;;
24449;SDS011;13349;50.984;5.822;2022-12-16T04:46:22;30.15;;;15.90;;
24449;SDS011;13349;50.984;5.822;2022-12-16T04:49:07;32.25;;;16.25;;
24449;SDS011;13349;50.984;5.822;2022-12-16T04:51:53;33.72;;;17.27;;
24449;SDS011;13349;50.984;5.822;2022-12-16T04:54:38;33.95;;;15.43;;
24449;SDS011;13349;50.984;5.822;2022-12-16T04:57:22;33.78;;;16.52;;
24449;SDS011;13349;50.984;5.822;2022-12-16T05:00:07;30.45;;;14.60;;
24449;SDS011;13349;50.984;5.822;2022-12-16T05:02:52;27.05;;;14.75;;
24449;SDS011;13349;50.984;5.822;2022-12-16T05:05:37;30.90;;;14.63;;
24449;SDS011;13349;50.984;5.822;2022-12-16T05:08:23;26.48;;;14.73;;
24449;SDS011;13349;50.984;5.822;2022-12-16T05:11:08;27.27;;;14.85;;
24449;SDS011;13349;50.984;5.822;2022-12-16T05:13:52;28.95;;;15.60;;
24449;SDS011;13349;50.984;5.822;2022-12-16T05:16:37;30.38;;;14.98;;
24449;SDS011;13349;50.984;5.822;2022-12-16T05:19:21;26.55;;;14.68;;
24449;SDS011;13349;50.984;5.822;2022-12-16T05:22:06;28.73;;;14.57;;
24449;SDS011;13349;50.984;5.822;2022-12-16T05:24:52;31.13;;;15.20;;
24449;SDS011;13349;50.984;5.822;2022-12-16T05:27:36;33.50;;;15.52;;
24449;SDS011;13349;50.984;5.822;2022-12-16T05:30:21;24.92;;;13.57;;
24449;SDS011;13349;50.984;5.822;2022-12-16T05:33:06;31.38;;;15.13;;
24449;SDS011;13349;50.984;5.822;2022-12-16T05:35:50;26.77;;;14.35;;
24449;SDS011;13349;50.984;5.822;2022-12-16T05:38:35;23.60;;;13.38;;
24449;SDS011;13349;50.984;5.822;2022-12-16T05:41:21;28.13;;;13.80;;
24449;SDS011;13349;50.984;5.822;2022-12-16T05:44:06;25.52;;;14.35;;
24449;SDS011;13349;50.984;5.822;2022-12-16T05:46:50;40.58;;;17.73;;
24449;SDS011;13349;50.984;5.822;2022-12-16T05:49:35;25.10;;;13.88;;
24449;SDS011;13349;50.984;5.822;2022-12-16T05:52:19;29.90;;;14.43;;
24449;SDS011;13349;50.984;5.822;2022-12-16T05:55:04;32.50;;;16.15;;
24449;SDS011;13349;50.984;5.822;2022-12-16T05:57:48;28.30;;;16.17;;
24449;SDS011;13349;50.984;5.822;2022-12-16T06:00:33;32.15;;;16.63;;
24449;SDS011;13349;50.984;5.822;2022-12-16T06:03:18;29.25;;;14.38;;
24449;SDS011;13349;50.984;5.822;2022-12-16T06:06:03;34.10;;;15.80;;
24449;SDS011;13349;50.984;5.822;2022-12-16T06:08:47;25.40;;;14.35;;
24449;SDS011;13349;50.984;5.822;2022-12-16T06:11:32;27.48;;;15.13;;
24449;SDS011;13349;50.984;5.822;2022-12-16T06:14:17;30.13;;;15.43;;
24449;SDS011;13349;50.984;5.822;2022-12-16T06:17:02;26.33;;;13.60;;
24449;SDS011;13349;50.984;5.822;2022-12-16T06:19:47;23.02;;;13.75;;
24449;SDS011;13349;50.984;5.822;2022-12-16T06:22:31;27.10;;;12.68;;
24449;SDS011;13349;50.984;5.822;2022-12-16T06:25:16;19.10;;;11.10;;
24449;SDS011;13349;50.984;5.822;2022-12-16T06:28:00;22.77;;;11.10;;
24449;SDS011;13349;50.984;5.822;2022-12-16T06:30:46;23.27;;;10.60;;
24449;SDS011;13349;50.984;5.822;2022-12-16T06:33:31;26.52;;;12.75;;
24449;SDS011;13349;50.984;5.822;2022-12-16T06:36:16;28.02;;;15.38;;
24449;SDS011;13349;50.984;5.822;2022-12-16T06:39:00;30.42;;;16.00;;
24449;SDS011;13349;50.984;5.822;2022-12-16T06:41:45;33.97;;;14.65;;
24449;SDS011;13349;50.984;5.822;2022-12-16T06:44:29;36.35;;;15.55;;
24449;SDS011;13349;50.984;5.822;2022-12-16T06:47:15;34.47;;;15.40;;
24449;SDS011;13349;50.984;5.822;2022-12-16T06:50:00;32.05;;;17.58;;
24449;SDS011;13349;50.984;5.822;2022-12-16T06:52:44;32.72;;;16.42;;
24449;SDS011;13349;50.984;5.822;2022-12-16T06:55:29;45.85;;;17.38;;
24449;SDS011;13349;50.984;5.822;2022-12-16T06:58:14;50.95;;;19.35;;
24449;SDS011;13349;50.984;5.822;2022-12-16T07:00:59;51.70;;;21.33;;
24449;SDS011;13349;50.984;5.822;2022-12-16T07:03:45;52.75;;;21.58;;
24449;SDS011;13349;50.984;5.822;2022-12-16T07:06:29;54.90;;;20.98;;
24449;SDS011;13349;50.984;5.822;2022-12-16T07:09:14;48.72;;;19.77;;
24449;SDS011;13349;50.984;5.822;2022-12-16T07:11:58;61.22;;;21.55;;
24449;SDS011;13349;50.984;5.822;2022-12-16T07:14:45;55.85;;;21.55;;
24449;SDS011;13349;50.984;5.822;2022-12-16T07:17:30;55.40;;;19.50;;
24449;SDS011;13349;50.984;5.822;2022-12-16T07:20:16;55.42;;;19.50;;
24449;SDS011;13349;50.984;5.822;2022-12-16T07:23:00;46.15;;;18.92;;
24449;SDS011;13349;50.984;5.822;2022-12-16T07:25:45;61.95;;;23.75;;
24449;SDS011;13349;50.984;5.822;2022-12-16T07:28:29;66.45;;;22.88;;
24449;SDS011;13349;50.984;5.822;2022-12-16T07:31:14;59.30;;;23.50;;
24449;SDS011;13349;50.984;5.822;2022-12-16T07:33:58;69.60;;;24.17;;
24449;SDS011;13349;50.984;5.822;2022-12-16T07:36:44;65.78;;;24.73;;
24449;SDS011;13349;50.984;5.822;2022-12-16T07:39:29;90.00;;;28.05;;
24449;SDS011;13349;50.984;5.822;2022-12-16T07:42:14;70.97;;;25.60;;
24449;SDS011;13349;50.984;5.822;2022-12-16T07:44:58;62.50;;;20.42;;
24449;SDS011;13349;50.984;5.822;2022-12-16T07:47:57;59.33;;;20.35;;
24449;SDS011;13349;50.984;5.822;2022-12-16T07:50:42;71.95;;;22.75;;
24449;SDS011;13349;50.984;5.822;2022-12-16T07:53:28;69.60;;;21.15;;
24449;SDS011;13349;50.984;5.822;2022-12-16T07:56:12;65.82;;;22.85;;
24449;SDS011;13349;50.984;5.822;2022-12-16T07:58:57;65.45;;;21.92;;
24449;SDS011;13349;50.984;5.822;2022-12-16T08:01:41;78.07;;;23.13;;
24449;SDS011;13349;50.984;5.822;2022-12-16T08:04:26;91.40;;;26.35;;
24449;SDS011;13349;50.984;5.822;2022-12-16T08:07:11;78.53;;;24.92;;
24449;SDS011;13349;50.984;5.822;2022-12-16T08:09:57;84.93;;;25.58;;
24449;SDS011;13349;50.984;5.822;2022-12-16T08:12:41;76.07;;;25.35;;
24449;SDS011;13349;50.984;5.822;2022-12-16T08:15:26;63.67;;;23.95;;
24449;SDS011;13349;50.984;5.822;2022-12-16T08:18:10;56.00;;;20.40;;
24449;SDS011;13349;50.984;5.822;2022-12-16T08:20:55;65.97;;;21.52;;
24449;SDS011;13349;50.984;5.822;2022-12-16T08:23:39;58.88;;;18.73;;
24449;SDS011;13349;50.984;5.822;2022-12-16T08:26:26;50.75;;;15.50;;
24449;SDS011;13349;50.984;5.822;2022-12-16T08:29:10;42.70;;;14.95;;
24449;SDS011;13349;50.984;5.822;2022-12-16T08:31:54;34.78;;;13.77;;
24449;SDS011;13349;50.984;5.822;2022-12-16T08:34:39;32.55;;;13.02;;
24449;SDS011;13349;50.984;5.822;2022-12-16T08:37:23;42.40;;;12.82;;
24449;SDS011;13349;50.984;5.822;2022-12-16T08:40:08;67.88;;;18.55;;
24449;SDS011;13349;50.984;5.822;2022-12-16T08:42:56;56.60;;;17.80;;
24449;SDS011;13349;50.984;5.822;2022-12-16T08:45:40;55.38;;;18.23;;
24449;SDS011;13349;50.984;5.822;2022-12-16T08:48:25;42.55;;;17.95;;
24449;SDS011;13349;50.984;5.822;2022-12-16T08:51:10;52.95;;;18.15;;
24449;SDS011;13349;50.984;5.822;2022-12-16T08:53:55;49.08;;;18.30;;
24449;SDS011;13349;50.984;5.822;2022-12-16T08:56:40;38.92;;;15.70;;
24449;SDS011;13349;50.984;5.822;2022-12-16T08:59:26;54.70;;;15.88;;
24449;SDS011;13349;50.984;5.822;2022-12-16T09:02:11;55.63;;;15.70;;
24449;SDS011;13349;50.984;5.822;2022-12-16T09:04:56;57.42;;;15.82;;
24449;SDS011;13349;50.984;5.822;2022-12-16T09:07:52;42.97;;;16.73;;
24449;SDS011;13349;50.984;5.822;2022-12-16T09:10:47;44.88;;;15.48;;
24449;SDS011;13349;50.984;5.822;2022-12-16T09:13:32;45.22;;;14.85;;
24449;SDS011;13349;50.984;5.822;2022-12-16T09:16:18;41.42;;;15.60;;
24449;SDS011;13349;50.984;5.822;2022-12-16T09:19:02;47.95;;;15.77;;
24449;SDS011;13349;50.984;5.822;2022-12-16T09:21:47;54.33;;;17.48;;
24449;SDS011;13349;50.984;5.822;2022-12-16T09:24:31;45.72;;;15.55;;
24449;SDS011;13349;50.984;5.822;2022-12-16T09:27:15;46.58;;;15.02;;
24449;SDS011;13349;50.984;5.822;2022-12-16T09:30:00;38.47;;;14.18;;
24449;SDS011;13349;50.984;5.822;2022-12-16T09:32:48;52.65;;;17.52;;
24449;SDS011;13349;50.984;5.822;2022-12-16T09:35:33;42.42;;;15.55;;
24449;SDS011;13349;50.984;5.822;2022-12-16T09:38:17;40.45;;;15.15;;
24449;SDS011;13349;50.984;5.822;2022-12-16T09:41:08;40.15;;;14.07;;
24449;SDS011;13349;50.984;5.822;2022-12-16T09:44:21;49.97;;;16.83;;
24449;SDS011;13349;50.984;5.822;2022-12-16T09:47:23;53.58;;;15.50;;
24449;SDS011;13349;50.984;5.822;2022-12-16T09:50:17;66.88;;;18.00;;
24449;SDS011;13349;50.984;5.822;2022-12-16T09:53:06;46.35;;;14.68;;
24449;SDS011;13349;50.984;5.822;2022-12-16T09:55:54;43.97;;;15.95;;
24449;SDS011;13349;50.984;5.822;2022-12-16T09:58:40;52.70;;;17.05;;
24449;SDS011;13349;50.984;5.822;2022-12-16T10:01:31;50.67;;;17.15;;
24449;SDS011;13349;50.984;5.822;2022-12-16T10:04:19;41.55;;;15.50;;
24449;SDS011;13349;50.984;5.822;2022-12-16T10:07:05;55.55;;;17.25;;
24449;SDS011;13349;50.984;5.822;2022-12-16T10:09:57;53.35;;;16.63;;
24449;SDS011;13349;50.984;5.822;2022-12-16T10:12:51;59.15;;;17.45;;
24449;SDS011;13349;50.984;5.822;2022-12-16T10:15:42;64.78;;;18.48;;
24449;SDS011;13349;50.984;5.822;2022-12-16T10:18:35;50.97;;;15.50;;
24449;SDS011;13349;50.984;5.822;2022-12-16T10:21:31;50.78;;;15.75;;
24449;SDS011;13349;50.984;5.822;2022-12-16T10:24:23;47.47;;;14.65;;
24449;SDS011;13349;50.984;5.822;2022-12-16T10:27:19;48.13;;;16.00;;
24449;SDS011;13349;50.984;5.822;2022-12-16T10:30:10;60.75;;;17.83;;
24449;SDS011;13349;50.984;5.822;2022-12-16T10:32:56;41.63;;;15.95;;
24449;SDS011;13349;50.984;5.822;2022-12-16T10:35:43;64.70;;;17.42;;
24449;SDS011;13349;50.984;5.822;2022-12-16T10:38:33;70.88;;;16.63;;
24449;SDS011;13349;50.984;5.822;2022-12-16T10:41:24;67.43;;;18.63;;
24449;SDS011;13349;50.984;5.822;2022-12-16T10:44:15;56.13;;;18.70;;
24449;SDS011;13349;50.984;5.822;2022-12-16T10:47:06;74.05;;;20.77;;
24449;SDS011;13349;50.984;5.822;2022-12-16T10:49:52;67.57;;;19.70;;
24449;SDS011;13349;50.984;5.822;2022-12-16T10:52:42;78.53;;;20.88;;
24449;SDS011;13349;50.984;5.822;2022-12-16T10:55:33;74.22;;;22.83;;
24449;SDS011;13349;50.984;5.822;2022-12-16T10:58:31;75.35;;;20.92;;
24449;SDS011;13349;50.984;5.822;2022-12-16T11:01:25;80.22;;;20.80;;
24449;SDS011;13349;50.984;5.822;2022-12-16T11:04:27;72.28;;;20.70;;
24449;SDS011;13349;50.984;5.822;2022-12-16T11:10:40;94.97;;;21.45;;
24449;SDS011;13349;50.984;5.822;2022-12-16T11:13:26;81.03;;;22.45;;
24449;SDS011;13349;50.984;5.822;2022-12-16T11:16:14;68.78;;;21.98;;
24449;SDS011;13349;50.984;5.822;2022-12-16T11:19:00;76.50;;;22.48;;
24449;SDS011;13349;50.984;5.822;2022-12-16T11:21:45;85.60;;;23.85;;
24449;SDS011;13349;50.984;5.822;2022-12-16T11:24:30;83.13;;;23.42;;
24449;SDS011;13349;50.984;5.822;2022-12-16T11:27:16;100.15;;;23.92;;
24449;SDS011;13349;50.984;5.822;2022-12-16T11:30:16;80.93;;;23.80;;
24449;SDS011;13349;50.984;5.822;2022-12-16T11:33:08;82.97;;;23.65;;
24449;SDS011;13349;50.984;5.822;2022-12-16T11:36:02;74.57;;;23.42;;
24449;SDS011;13349;50.984;5.822;2022-12-16T11:38:52;82.70;;;24.85;;
24449;SDS011;13349;50.984;5.822;2022-12-16T11:41:38;99.70;;;22.55;;
24449;SDS011;13349;50.984;5.822;2022-12-16T11:44:25;77.53;;;24.27;;
24449;SDS011;13349;50.984;5.822;2022-12-16T11:47:15;74.13;;;25.33;;
24449;SDS011;13349;50.984;5.822;2022-12-16T11:50:06;89.32;;;22.90;;
24449;SDS011;13349;50.984;5.822;2022-12-16T11:53:12;107.25;;;26.33;;
24449;SDS011;13349;50.984;5.822;2022-12-16T11:56:09;78.38;;;22.33;;
24449;SDS011;13349;50.984;5.822;2022-12-16T11:58:59;90.50;;;21.70;;
24449;SDS011;13349;50.984;5.822;2022-12-16T12:01:58;125.70;;;29.77;;
24449;SDS011;13349;50.984;5.822;2022-12-16T12:04:47;100.00;;;27.27;;
24449;SDS011;13349;50.984;5.822;2022-12-16T12:07:35;89.45;;;26.60;;
24449;SDS011;13349;50.984;5.822;2022-12-16T12:10:37;96.40;;;25.95;;
24449;SDS011;13349;50.984;5.822;2022-12-16T12:13:38;95.13;;;25.38;;
24449;SDS011;13349;50.984;5.822;2022-12-16T12:16:34;70.53;;;23.70;;
24449;SDS011;13349;50.984;5.822;2022-12-16T12:19:26;89.38;;;22.83;;
24449;SDS011;13349;50.984;5.822;2022-12-16T12:22:21;77.10;;;22.67;;
24449;SDS011;13349;50.984;5.822;2022-12-16T12:25:16;72.53;;;22.55;;
24449;SDS011;13349;50.984;5.822;2022-12-16T12:28:08;74.70;;;21.30;;
24449;SDS011;13349;50.984;5.822;2022-12-16T12:31:03;69.15;;;22.70;;
24449;SDS011;13349;50.984;5.822;2022-12-16T12:33:59;57.15;;;21.20;;
24449;SDS011;13349;50.984;5.822;2022-12-16T12:36:53;60.92;;;22.10;;
24449;SDS011;13349;50.984;5.822;2022-12-16T12:39:49;83.10;;;21.77;;
24449;SDS011;13349;50.984;5.822;2022-12-16T12:42:44;77.10;;;22.48;;
24449;SDS011;13349;50.984;5.822;2022-12-16T12:45:39;73.53;;;23.83;;
24449;SDS011;13349;50.984;5.822;2022-12-16T12:48:35;76.82;;;21.52;;
24449;SDS011;13349;50.984;5.822;2022-12-16T12:51:27;84.43;;;24.87;;
24449;SDS011;13349;50.984;5.822;2022-12-16T12:54:20;88.32;;;24.02;;
24449;SDS011;13349;50.984;5.822;2022-12-16T12:57:28;90.90;;;23.55;;
24449;SDS011;13349;50.984;5.822;2022-12-16T13:00:17;75.97;;;22.70;;
24449;SDS011;13349;50.984;5.822;2022-12-16T13:03:05;51.38;;;20.15;;
24449;SDS011;13349;50.984;5.822;2022-12-16T13:05:56;56.53;;;20.70;;
24449;SDS011;13349;50.984;5.822;2022-12-16T13:08:44;64.22;;;22.60;;
24449;SDS011;13349;50.984;5.822;2022-12-16T13:11:37;61.05;;;21.15;;
24449;SDS011;13349;50.984;5.822;2022-12-16T13:14:52;63.15;;;21.00;;
24449;SDS011;13349;50.984;5.822;2022-12-16T13:24:31;44.20;;;16.70;;
24449;SDS011;13349;50.984;5.822;2022-12-16T13:27:23;46.75;;;17.85;;
24449;SDS011;13349;50.984;5.822;2022-12-16T13:30:23;51.03;;;15.82;;
24449;SDS011;13349;50.984;5.822;2022-12-16T13:33:20;40.70;;;16.48;;
24449;SDS011;13349;50.984;5.822;2022-12-16T13:36:10;76.57;;;18.20;;
24449;SDS011;13349;50.984;5.822;2022-12-16T13:38:59;58.75;;;16.45;;
24449;SDS011;13349;50.984;5.822;2022-12-16T13:42:03;44.28;;;17.17;;
24449;SDS011;13349;50.984;5.822;2022-12-16T13:44:54;55.83;;;16.55;;
24449;SDS011;13349;50.984;5.822;2022-12-16T13:51:06;62.83;;;16.60;;
24449;SDS011;13349;50.984;5.822;2022-12-16T13:54:07;38.85;;;16.60;;
24449;SDS011;13349;50.984;5.822;2022-12-16T13:56:52;41.97;;;15.70;;
24449;SDS011;13349;50.984;5.822;2022-12-16T13:59:37;41.83;;;16.08;;
24449;SDS011;13349;50.984;5.822;2022-12-16T14:02:25;56.55;;;16.25;;
24449;SDS011;13349;50.984;5.822;2022-12-16T14:05:18;41.33;;;16.30;;
24449;SDS011;13349;50.984;5.822;2022-12-16T14:08:09;51.25;;;16.55;;
24449;SDS011;13349;50.984;5.822;2022-12-16T14:11:15;58.88;;;17.42;;
24449;SDS011;13349;50.984;5.822;2022-12-16T14:14:05;46.70;;;15.98;;
24449;SDS011;13349;50.984;5.822;2022-12-16T14:16:57;45.15;;;14.70;;
24449;SDS011;13349;50.984;5.822;2022-12-16T14:19:47;60.00;;;15.15;;
24449;SDS011;13349;50.984;5.822;2022-12-16T14:22:45;33.63;;;15.13;;
24449;SDS011;13349;50.984;5.822;2022-12-16T14:25:34;44.20;;;15.95;;
24449;SDS011;13349;50.984;5.822;2022-12-16T14:28:26;64.55;;;17.58;;
24449;SDS011;13349;50.984;5.822;2022-12-16T14:31:14;76.28;;;18.40;;
24449;SDS011;13349;50.984;5.822;2022-12-16T14:34:02;36.13;;;15.43;;
24449;SDS011;13349;50.984;5.822;2022-12-16T14:36:47;53.47;;;15.82;;
24449;SDS011;13349;50.984;5.822;2022-12-16T14:39:35;49.08;;;14.80;;
24449;SDS011;13349;50.984;5.822;2022-12-16T14:42:23;52.40;;;16.17;;
24449;SDS011;13349;50.984;5.822;2022-12-16T14:45:24;48.42;;;16.05;;
24449;SDS011;13349;50.984;5.822;2022-12-16T14:48:12;53.45;;;15.98;;
24449;SDS011;13349;50.984;5.822;2022-12-16T14:51:13;63.53;;;17.23;;
24449;SDS011;13349;50.984;5.822;2022-12-16T14:54:08;53.63;;;15.75;;
24449;SDS011;13349;50.984;5.822;2022-12-16T14:57:07;50.47;;;16.90;;
24449;SDS011;13349;50.984;5.822;2022-12-16T14:59:58;61.55;;;16.98;;
24449;SDS011;13349;50.984;5.822;2022-12-16T15:02:46;50.70;;;17.70;;
24449;SDS011;13349;50.984;5.822;2022-12-16T15:05:34;47.72;;;16.40;;
24449;SDS011;13349;50.984;5.822;2022-12-16T15:08:20;72.50;;;19.17;;
24449;SDS011;13349;50.984;5.822;2022-12-16T15:11:06;45.60;;;17.75;;
24449;SDS011;13349;50.984;5.822;2022-12-16T15:13:58;58.47;;;18.50;;
24449;SDS011;13349;50.984;5.822;2022-12-16T15:16:44;52.08;;;17.50;;
24449;SDS011;13349;50.984;5.822;2022-12-16T15:19:36;58.17;;;17.20;;
24449;SDS011;13349;50.984;5.822;2022-12-16T15:22:26;46.42;;;15.82;;
24449;SDS011;13349;50.984;5.822;2022-12-16T15:25:17;45.58;;;16.88;;
24449;SDS011;13349;50.984;5.822;2022-12-16T15:28:18;41.92;;;15.68;;
24449;SDS011;13349;50.984;5.822;2022-12-16T15:31:13;41.80;;;16.73;;
24449;SDS011;13349;50.984;5.822;2022-12-16T15:34:22;62.47;;;17.70;;
24449;SDS011;13349;50.984;5.822;2022-12-16T15:37:20;46.05;;;17.90;;
24449;SDS011;13349;50.984;5.822;2022-12-16T15:43:20;47.78;;;17.30;;
24449;SDS011;13349;50.984;5.822;2022-12-16T15:46:14;44.75;;;17.42;;
24449;SDS011;13349;50.984;5.822;2022-12-16T15:49:03;47.28;;;17.40;;
24449;SDS011;13349;50.984;5.822;2022-12-16T15:51:48;42.50;;;17.63;;
24449;SDS011;13349;50.984;5.822;2022-12-16T15:54:49;38.60;;;14.07;;
24449;SDS011;13349;50.984;5.822;2022-12-16T15:57:36;44.92;;;15.10;;
24449;SDS011;13349;50.984;5.822;2022-12-16T16:00:23;33.78;;;12.93;;
24449;SDS011;13349;50.984;5.822;2022-12-16T16:03:19;33.10;;;14.80;;
24449;SDS011;13349;50.984;5.822;2022-12-16T16:06:12;37.08;;;14.02;;
24449;SDS011;13349;50.984;5.822;2022-12-16T16:08:59;41.95;;;15.50;;
24449;SDS011;13349;50.984;5.822;2022-12-16T16:11:45;35.03;;;13.95;;
24449;SDS011;13349;50.984;5.822;2022-12-16T16:14:29;32.70;;;13.35;;
24449;SDS011;13349;50.984;5.822;2022-12-16T16:17:19;30.88;;;14.07;;
24449;SDS011;13349;50.984;5.822;2022-12-16T16:20:05;31.40;;;12.57;;
24449;SDS011;13349;50.984;5.822;2022-12-16T16:22:56;35.08;;;13.63;;
24449;SDS011;13349;50.984;5.822;2022-12-16T16:25:41;29.50;;;14.20;;
24449;SDS011;13349;50.984;5.822;2022-12-16T16:28:27;36.97;;;14.02;;